sensor_id;sensor_type;location;lat;lon;timestamp;temperature;humidity
54898;DHT22;40800;52.704;6.398;2023-02-04T00:00:46;6.00;99.90
54898;DHT22;40800;52.704;6.398;2023-02-04T00:03:13;6.10;99.90
54898;DHT22;40800;52.704;6.398;2023-02-04T00:05:39;6.10;99.90
54898;DHT22;40800;52.704;6.398;2023-02-04T00:08:05;6.10;99.90
54898;DHT22;40800;52.704;6.398;2023-02-04T00:10:31;6.50;99.90
54898;DHT22;40800;52.704;6.398;2023-02-04T00:12:57;6.20;99.90
54898;DHT22;40800;52.704;6.398;2023-02-04T00:15:22;5.90;99.90
54898;DHT22;40800;52.704;6.398;2023-02-04T00:17:48;6.40;99.90
54898;DHT22;40800;52.704;6.398;2023-02-04T00:20:13;5.90;99.90
54898;DHT22;40800;52.704;6.398;2023-02-04T00:22:39;6.40;99.90
54898;DHT22;40800;52.704;6.398;2023-02-04T00:25:05;6.40;99.90
54898;DHT22;40800;52.704;6.398;2023-02-04T00:27:31;6.50;99.90
54898;DHT22;40800;52.704;6.398;2023-02-04T00:29:57;6.00;99.90
54898;DHT22;40800;52.704;6.398;2023-02-04T00:32:23;6.50;99.90
54898;DHT22;40800;52.704;6.398;2023-02-04T00:34:49;6.20;99.90
54898;DHT22;40800;52.704;6.398;2023-02-04T00:37:15;6.50;99.90
54898;DHT22;40800;52.704;6.398;2023-02-04T00:39:40;6.10;99.90
54898;DHT22;40800;52.704;6.398;2023-02-04T00:42:06;5.90;99.90
54898;DHT22;40800;52.704;6.398;2023-02-04T00:44:32;6.50;99.90
54898;DHT22;40800;52.704;6.398;2023-02-04T00:46:58;6.00;99.90
54898;DHT22;40800;52.704;6.398;2023-02-04T00:49:23;5.90;99.90
54898;DHT22;40800;52.704;6.398;2023-02-04T00:51:49;6.50;99.90
54898;DHT22;40800;52.704;6.398;2023-02-04T00:54:15;6.00;99.90
54898;DHT22;40800;52.704;6.398;2023-02-04T00:56:42;5.90;99.90
54898;DHT22;40800;52.704;6.398;2023-02-04T00:59:07;5.90;99.90
54898;DHT22;40800;52.704;6.398;2023-02-04T01:01:33;6.00;99.90
54898;DHT22;40800;52.704;6.398;2023-02-04T01:03:59;6.10;99.90
54898;DHT22;40800;52.704;6.398;2023-02-04T01:06:24;6.00;99.90
54898;DHT22;40800;52.704;6.398;2023-02-04T01:08:50;6.30;99.90
54898;DHT22;40800;52.704;6.398;2023-02-04T01:11:16;6.00;99.90
54898;DHT22;40800;52.704;6.398;2023-02-04T01:13:42;6.50;99.90
54898;DHT22;40800;52.704;6.398;2023-02-04T01:16:08;6.30;99.90
54898;DHT22;40800;52.704;6.398;2023-02-04T01:18:33;6.50;99.90
54898;DHT22;40800;52.704;6.398;2023-02-04T01:20:59;6.00;99.90
54898;DHT22;40800;52.704;6.398;2023-02-04T01:23:25;6.50;99.90
54898;DHT22;40800;52.704;6.398;2023-02-04T01:25:50;6.10;99.90
54898;DHT22;40800;52.704;6.398;2023-02-04T01:28:16;6.20;99.90
54898;DHT22;40800;52.704;6.398;2023-02-04T01:30:41;6.00;99.90
54898;DHT22;40800;52.704;6.398;2023-02-04T01:33:07;6.00;99.90
54898;DHT22;40800;52.704;6.398;2023-02-04T01:35:32;6.50;99.90
54898;DHT22;40800;52.704;6.398;2023-02-04T01:37:58;5.90;99.90
54898;DHT22;40800;52.704;6.398;2023-02-04T01:40:24;6.50;99.90
54898;DHT22;40800;52.704;6.398;2023-02-04T01:42:50;6.00;99.90
54898;DHT22;40800;52.704;6.398;2023-02-04T01:45:16;6.40;99.90
54898;DHT22;40800;52.704;6.398;2023-02-04T01:47:43;6.50;99.90
54898;DHT22;40800;52.704;6.398;2023-02-04T01:50:12;6.40;99.90
54898;DHT22;40800;52.704;6.398;2023-02-04T01:52:39;6.30;99.90
54898;DHT22;40800;52.704;6.398;2023-02-04T01:55:13;6.40;99.90
54898;DHT22;40800;52.704;6.398;2023-02-04T01:57:38;5.90;99.90
54898;DHT22;40800;52.704;6.398;2023-02-04T02:00:09;6.20;99.90
54898;DHT22;40800;52.704;6.398;2023-02-04T02:02:54;6.50;99.90
54898;DHT22;40800;52.704;6.398;2023-02-04T02:05:36;6.20;99.90
54898;DHT22;40800;52.704;6.398;2023-02-04T02:08:04;6.20;99.90
54898;DHT22;40800;52.704;6.398;2023-02-04T02:10:30;6.40;99.90
54898;DHT22;40800;52.704;6.398;2023-02-04T02:12:56;6.50;99.90
54898;DHT22;40800;52.704;6.398;2023-02-04T02:15:22;6.00;99.90
54898;DHT22;40800;52.704;6.398;2023-02-04T02:17:49;6.50;99.90
54898;DHT22;40800;52.704;6.398;2023-02-04T02:20:17;6.50;99.90
54898;DHT22;40800;52.704;6.398;2023-02-04T02:25:35;6.20;99.90
54898;DHT22;40800;52.704;6.398;2023-02-04T02:28:01;6.30;99.90
54898;DHT22;40800;52.704;6.398;2023-02-04T02:30:29;6.20;99.90
54898;DHT22;40800;52.704;6.398;2023-02-04T02:32:55;6.00;99.90
54898;DHT22;40800;52.704;6.398;2023-02-04T02:35:21;6.30;99.90
54898;DHT22;40800;52.704;6.398;2023-02-04T02:37:47;6.00;99.90
54898;DHT22;40800;52.704;6.398;2023-02-04T02:40:13;6.50;99.90
54898;DHT22;40800;52.704;6.398;2023-02-04T02:42:39;6.50;99.90
54898;DHT22;40800;52.704;6.398;2023-02-04T02:45:12;6.50;99.90
54898;DHT22;40800;52.704;6.398;2023-02-04T02:47:39;5.90;99.90
54898;DHT22;40800;52.704;6.398;2023-02-04T02:50:05;6.20;99.90
54898;DHT22;40800;52.704;6.398;2023-02-04T02:52:30;5.90;99.90
54898;DHT22;40800;52.704;6.398;2023-02-04T02:54:56;6.40;99.90
54898;DHT22;40800;52.704;6.398;2023-02-04T02:57:22;6.20;99.90
54898;DHT22;40800;52.704;6.398;2023-02-04T02:59:48;6.00;99.90
54898;DHT22;40800;52.704;6.398;2023-02-04T03:02:17;6.50;99.90
54898;DHT22;40800;52.704;6.398;2023-02-04T03:04:48;6.10;99.90
54898;DHT22;40800;52.704;6.398;2023-02-04T03:07:17;6.60;99.90
54898;DHT22;40800;52.704;6.398;2023-02-04T03:09:44;6.60;99.90
54898;DHT22;40800;52.704;6.398;2023-02-04T03:12:09;6.70;99.90
54898;DHT22;40800;52.704;6.398;2023-02-04T03:14:36;6.60;99.90
54898;DHT22;40800;52.704;6.398;2023-02-04T03:17:04;6.10;99.90
54898;DHT22;40800;52.704;6.398;2023-02-04T03:19:30;6.00;99.90
54898;DHT22;40800;52.704;6.398;2023-02-04T03:21:56;6.00;99.90
54898;DHT22;40800;52.704;6.398;2023-02-04T03:24:23;6.00;99.90
54898;DHT22;40800;52.704;6.398;2023-02-04T03:26:49;6.50;99.90
54898;DHT22;40800;52.704;6.398;2023-02-04T03:29:14;5.90;99.90
54898;DHT22;40800;52.704;6.398;2023-02-04T03:31:40;5.90;99.90
54898;DHT22;40800;52.704;6.398;2023-02-04T03:34:06;6.40;99.90
54898;DHT22;40800;52.704;6.398;2023-02-04T03:36:32;5.70;99.90
54898;DHT22;40800;52.704;6.398;2023-02-04T03:38:57;6.10;99.90
54898;DHT22;40800;52.704;6.398;2023-02-04T03:41:23;6.10;99.90
54898;DHT22;40800;52.704;6.398;2023-02-04T03:43:48;5.70;99.90
54898;DHT22;40800;52.704;6.398;2023-02-04T03:46:14;6.30;99.90
54898;DHT22;40800;52.704;6.398;2023-02-04T03:48:40;6.30;99.90
54898;DHT22;40800;52.704;6.398;2023-02-04T03:51:05;5.70;99.90
54898;DHT22;40800;52.704;6.398;2023-02-04T03:53:31;5.90;99.90
54898;DHT22;40800;52.704;6.398;2023-02-04T03:55:57;5.70;99.90
54898;DHT22;40800;52.704;6.398;2023-02-04T03:58:23;5.90;99.90
54898;DHT22;40800;52.704;6.398;2023-02-04T04:00:48;5.80;99.90
54898;DHT22;40800;52.704;6.398;2023-02-04T04:03:14;6.10;99.90
54898;DHT22;40800;52.704;6.398;2023-02-04T04:05:40;5.60;99.90
54898;DHT22;40800;52.704;6.398;2023-02-04T04:08:05;5.60;99.90
54898;DHT22;40800;52.704;6.398;2023-02-04T04:10:31;5.70;99.90
54898;DHT22;40800;52.704;6.398;2023-02-04T04:12:56;6.00;99.90
54898;DHT22;40800;52.704;6.398;2023-02-04T04:15:23;5.80;99.90
54898;DHT22;40800;52.704;6.398;2023-02-04T04:17:48;5.90;99.90
54898;DHT22;40800;52.704;6.398;2023-02-04T04:20:14;5.50;99.90
54898;DHT22;40800;52.704;6.398;2023-02-04T04:22:40;6.10;99.90
54898;DHT22;40800;52.704;6.398;2023-02-04T04:25:06;6.10;99.90
54898;DHT22;40800;52.704;6.398;2023-02-04T04:27:32;5.70;99.90
54898;DHT22;40800;52.704;6.398;2023-02-04T04:29:58;6.10;99.90
54898;DHT22;40800;52.704;6.398;2023-02-04T04:32:23;5.30;99.90
54898;DHT22;40800;52.704;6.398;2023-02-04T04:34:49;5.30;99.90
54898;DHT22;40800;52.704;6.398;2023-02-04T04:37:14;6.00;99.90
54898;DHT22;40800;52.704;6.398;2023-02-04T04:39:40;6.00;99.90
54898;DHT22;40800;52.704;6.398;2023-02-04T04:42:06;5.60;99.90
54898;DHT22;40800;52.704;6.398;2023-02-04T04:44:31;5.50;99.90
54898;DHT22;40800;52.704;6.398;2023-02-04T04:46:57;5.60;99.90
54898;DHT22;40800;52.704;6.398;2023-02-04T04:49:23;5.20;99.90
54898;DHT22;40800;52.704;6.398;2023-02-04T04:51:49;5.30;99.90
54898;DHT22;40800;52.704;6.398;2023-02-04T04:54:14;5.20;99.90
54898;DHT22;40800;52.704;6.398;2023-02-04T04:56:40;5.30;99.90
54898;DHT22;40800;52.704;6.398;2023-02-04T04:59:06;5.90;99.90
54898;DHT22;40800;52.704;6.398;2023-02-04T05:01:31;5.90;99.90
54898;DHT22;40800;52.704;6.398;2023-02-04T05:03:57;5.50;99.90
54898;DHT22;40800;52.704;6.398;2023-02-04T05:06:23;5.20;99.90
54898;DHT22;40800;52.704;6.398;2023-02-04T05:08:52;5.50;99.90
54898;DHT22;40800;52.704;6.398;2023-02-04T05:11:18;6.00;99.90
54898;DHT22;40800;52.704;6.398;2023-02-04T05:13:44;5.70;99.90
54898;DHT22;40800;52.704;6.398;2023-02-04T05:16:10;6.10;99.90
54898;DHT22;40800;52.704;6.398;2023-02-04T05:18:37;5.40;99.90
54898;DHT22;40800;52.704;6.398;2023-02-04T05:21:03;5.30;99.90
54898;DHT22;40800;52.704;6.398;2023-02-04T05:23:29;6.00;99.90
54898;DHT22;40800;52.704;6.398;2023-02-04T05:25:55;5.80;99.90
54898;DHT22;40800;52.704;6.398;2023-02-04T05:28:20;5.40;99.90
54898;DHT22;40800;52.704;6.398;2023-02-04T05:30:46;6.20;99.90
54898;DHT22;40800;52.704;6.398;2023-02-04T05:33:12;6.00;99.90
54898;DHT22;40800;52.704;6.398;2023-02-04T05:35:38;5.60;99.90
54898;DHT22;40800;52.704;6.398;2023-02-04T05:38:03;5.50;99.90
54898;DHT22;40800;52.704;6.398;2023-02-04T05:40:29;5.50;99.90
54898;DHT22;40800;52.704;6.398;2023-02-04T05:42:55;5.70;99.90
54898;DHT22;40800;52.704;6.398;2023-02-04T05:45:20;5.60;99.90
54898;DHT22;40800;52.704;6.398;2023-02-04T05:47:46;5.40;99.90
54898;DHT22;40800;52.704;6.398;2023-02-04T05:50:12;5.30;99.90
54898;DHT22;40800;52.704;6.398;2023-02-04T05:52:37;6.10;99.90
54898;DHT22;40800;52.704;6.398;2023-02-04T05:55:04;5.20;99.90
54898;DHT22;40800;52.704;6.398;2023-02-04T05:57:30;6.00;99.90
54898;DHT22;40800;52.704;6.398;2023-02-04T05:59:56;5.20;99.90
54898;DHT22;40800;52.704;6.398;2023-02-04T06:02:21;5.30;99.90
54898;DHT22;40800;52.704;6.398;2023-02-04T06:04:47;5.20;99.90
54898;DHT22;40800;52.704;6.398;2023-02-04T06:07:13;5.30;99.90
54898;DHT22;40800;52.704;6.398;2023-02-04T06:09:38;5.50;99.90
54898;DHT22;40800;52.704;6.398;2023-02-04T06:12:04;6.00;99.90
54898;DHT22;40800;52.704;6.398;2023-02-04T06:14:30;5.20;99.90
54898;DHT22;40800;52.704;6.398;2023-02-04T06:16:55;5.80;99.90
54898;DHT22;40800;52.704;6.398;2023-02-04T06:19:21;6.00;99.90
54898;DHT22;40800;52.704;6.398;2023-02-04T06:21:46;5.10;99.90
54898;DHT22;40800;52.704;6.398;2023-02-04T06:24:12;5.50;99.90
54898;DHT22;40800;52.704;6.398;2023-02-04T06:26:38;5.20;99.90
54898;DHT22;40800;52.704;6.398;2023-02-04T06:29:03;6.00;99.90
54898;DHT22;40800;52.704;6.398;2023-02-04T06:31:29;5.20;99.90
54898;DHT22;40800;52.704;6.398;2023-02-04T06:33:54;5.40;99.90
54898;DHT22;40800;52.704;6.398;2023-02-04T06:36:20;5.20;99.90
54898;DHT22;40800;52.704;6.398;2023-02-04T06:38:46;5.20;99.90
54898;DHT22;40800;52.704;6.398;2023-02-04T06:41:11;5.90;99.90
54898;DHT22;40800;52.704;6.398;2023-02-04T06:43:37;5.20;99.90
54898;DHT22;40800;52.704;6.398;2023-02-04T06:46:03;6.00;99.90
54898;DHT22;40800;52.704;6.398;2023-02-04T06:48:28;5.30;99.90
54898;DHT22;40800;52.704;6.398;2023-02-04T06:50:54;5.50;99.90
54898;DHT22;40800;52.704;6.398;2023-02-04T06:53:19;6.20;99.90
54898;DHT22;40800;52.704;6.398;2023-02-04T06:55:45;6.00;99.90
54898;DHT22;40800;52.704;6.398;2023-02-04T06:58:10;5.60;99.90
54898;DHT22;40800;52.704;6.398;2023-02-04T07:00:36;6.10;99.90
54898;DHT22;40800;52.704;6.398;2023-02-04T07:03:02;5.70;99.90
54898;DHT22;40800;52.704;6.398;2023-02-04T07:05:27;6.20;99.90
54898;DHT22;40800;52.704;6.398;2023-02-04T07:07:53;6.20;99.90
54898;DHT22;40800;52.704;6.398;2023-02-04T07:10:18;5.60;99.90
54898;DHT22;40800;52.704;6.398;2023-02-04T07:12:47;5.80;99.90
54898;DHT22;40800;52.704;6.398;2023-02-04T07:15:12;6.20;99.90
54898;DHT22;40800;52.704;6.398;2023-02-04T07:17:38;6.10;99.90
54898;DHT22;40800;52.704;6.398;2023-02-04T07:20:04;5.40;99.90
54898;DHT22;40800;52.704;6.398;2023-02-04T07:22:29;5.60;99.90
54898;DHT22;40800;52.704;6.398;2023-02-04T07:24:55;5.40;99.90
54898;DHT22;40800;52.704;6.398;2023-02-04T07:27:20;6.20;99.90
54898;DHT22;40800;52.704;6.398;2023-02-04T07:29:46;6.10;99.90
54898;DHT22;40800;52.704;6.398;2023-02-04T07:32:12;6.30;99.90
54898;DHT22;40800;52.704;6.398;2023-02-04T07:34:37;6.20;99.90
54898;DHT22;40800;52.704;6.398;2023-02-04T07:37:03;5.40;99.90
54898;DHT22;40800;52.704;6.398;2023-02-04T07:39:28;6.20;99.90
54898;DHT22;40800;52.704;6.398;2023-02-04T07:41:54;5.40;99.90
54898;DHT22;40800;52.704;6.398;2023-02-04T07:44:20;6.20;99.90
54898;DHT22;40800;52.704;6.398;2023-02-04T07:46:45;5.60;99.90
54898;DHT22;40800;52.704;6.398;2023-02-04T07:49:11;6.20;99.90
54898;DHT22;40800;52.704;6.398;2023-02-04T07:51:37;6.20;99.90
54898;DHT22;40800;52.704;6.398;2023-02-04T07:54:02;5.60;99.90
54898;DHT22;40800;52.704;6.398;2023-02-04T07:56:28;6.40;99.90
54898;DHT22;40800;52.704;6.398;2023-02-04T07:58:53;6.30;99.90
54898;DHT22;40800;52.704;6.398;2023-02-04T08:01:19;5.70;99.90
54898;DHT22;40800;52.704;6.398;2023-02-04T08:03:45;5.80;99.90
54898;DHT22;40800;52.704;6.398;2023-02-04T08:06:10;5.70;99.90
54898;DHT22;40800;52.704;6.398;2023-02-04T08:08:36;6.00;99.90
54898;DHT22;40800;52.704;6.398;2023-02-04T08:11:02;6.60;99.90
54898;DHT22;40800;52.704;6.398;2023-02-04T08:13:27;6.50;99.90
54898;DHT22;40800;52.704;6.398;2023-02-04T08:15:53;5.90;99.90
54898;DHT22;40800;52.704;6.398;2023-02-04T08:18:18;6.00;99.90
54898;DHT22;40800;52.704;6.398;2023-02-04T08:20:44;6.70;99.90
54898;DHT22;40800;52.704;6.398;2023-02-04T08:23:09;6.80;99.90
54898;DHT22;40800;52.704;6.398;2023-02-04T08:25:35;6.10;99.90
54898;DHT22;40800;52.704;6.398;2023-02-04T08:28:01;6.80;99.90
54898;DHT22;40800;52.704;6.398;2023-02-04T08:30:26;6.90;99.90
54898;DHT22;40800;52.704;6.398;2023-02-04T08:32:52;6.50;99.90
54898;DHT22;40800;52.704;6.398;2023-02-04T08:35:18;6.80;99.90
54898;DHT22;40800;52.704;6.398;2023-02-04T08:37:43;7.20;99.90
54898;DHT22;40800;52.704;6.398;2023-02-04T08:40:09;6.70;99.90
54898;DHT22;40800;52.704;6.398;2023-02-04T08:42:35;6.80;99.90
54898;DHT22;40800;52.704;6.398;2023-02-04T08:45:01;6.70;99.90
54898;DHT22;40800;52.704;6.398;2023-02-04T08:47:26;6.80;99.90
54898;DHT22;40800;52.704;6.398;2023-02-04T08:49:52;7.10;99.90
54898;DHT22;40800;52.704;6.398;2023-02-04T08:52:18;6.70;99.90
54898;DHT22;40800;52.704;6.398;2023-02-04T08:54:44;6.70;99.90
54898;DHT22;40800;52.704;6.398;2023-02-04T08:57:09;7.00;99.90
54898;DHT22;40800;52.704;6.398;2023-02-04T08:59:35;6.70;99.90
54898;DHT22;40800;52.704;6.398;2023-02-04T09:02:00;6.60;99.90
54898;DHT22;40800;52.704;6.398;2023-02-04T09:04:27;6.60;99.90
54898;DHT22;40800;52.704;6.398;2023-02-04T09:06:53;6.90;99.90
54898;DHT22;40800;52.704;6.398;2023-02-04T09:09:19;6.80;99.90
54898;DHT22;40800;52.704;6.398;2023-02-04T09:11:44;6.80;99.90
54898;DHT22;40800;52.704;6.398;2023-02-04T09:14:10;7.00;99.90
54898;DHT22;40800;52.704;6.398;2023-02-04T09:16:36;6.90;99.90
54898;DHT22;40800;52.704;6.398;2023-02-04T09:19:01;6.90;99.90
54898;DHT22;40800;52.704;6.398;2023-02-04T09:21:28;6.90;99.90
54898;DHT22;40800;52.704;6.398;2023-02-04T09:23:53;6.90;99.90
54898;DHT22;40800;52.704;6.398;2023-02-04T09:26:19;7.00;99.90
54898;DHT22;40800;52.704;6.398;2023-02-04T09:28:45;7.00;99.90
54898;DHT22;40800;52.704;6.398;2023-02-04T09:31:12;7.00;99.90
54898;DHT22;40800;52.704;6.398;2023-02-04T09:33:37;7.10;99.90
54898;DHT22;40800;52.704;6.398;2023-02-04T09:36:03;7.30;99.90
54898;DHT22;40800;52.704;6.398;2023-02-04T09:38:29;7.40;99.90
54898;DHT22;40800;52.704;6.398;2023-02-04T09:40:57;7.40;99.90
54898;DHT22;40800;52.704;6.398;2023-02-04T09:43:29;7.30;99.90
54898;DHT22;40800;52.704;6.398;2023-02-04T09:45:56;7.30;99.90
54898;DHT22;40800;52.704;6.398;2023-02-04T09:48:23;7.50;99.90
54898;DHT22;40800;52.704;6.398;2023-02-04T09:50:50;7.40;99.90
54898;DHT22;40800;52.704;6.398;2023-02-04T09:53:18;7.30;99.90
54898;DHT22;40800;52.704;6.398;2023-02-04T09:55:46;7.50;99.90
54898;DHT22;40800;52.704;6.398;2023-02-04T09:58:17;7.50;99.90
54898;DHT22;40800;52.704;6.398;2023-02-04T10:00:58;8.30;99.90
54898;DHT22;40800;52.704;6.398;2023-02-04T10:03:25;7.70;99.90
54898;DHT22;40800;52.704;6.398;2023-02-04T10:05:51;7.50;99.90
54898;DHT22;40800;52.704;6.398;2023-02-04T10:08:27;7.50;99.90
54898;DHT22;40800;52.704;6.398;2023-02-04T10:10:53;7.70;99.90
54898;DHT22;40800;52.704;6.398;2023-02-04T10:13:23;7.60;99.90
54898;DHT22;40800;52.704;6.398;2023-02-04T10:15:52;7.80;99.90
54898;DHT22;40800;52.704;6.398;2023-02-04T10:18:25;7.80;99.90
54898;DHT22;40800;52.704;6.398;2023-02-04T10:21:16;7.70;99.90
54898;DHT22;40800;52.704;6.398;2023-02-04T10:23:41;7.80;99.90
54898;DHT22;40800;52.704;6.398;2023-02-04T10:26:10;8.10;99.90
54898;DHT22;40800;52.704;6.398;2023-02-04T10:28:37;8.10;99.90
54898;DHT22;40800;52.704;6.398;2023-02-04T10:31:04;8.30;99.90
54898;DHT22;40800;52.704;6.398;2023-02-04T10:33:33;8.30;99.90
54898;DHT22;40800;52.704;6.398;2023-02-04T10:36:03;8.40;99.90
54898;DHT22;40800;52.704;6.398;2023-02-04T10:38:30;8.50;99.90
54898;DHT22;40800;52.704;6.398;2023-02-04T10:41:03;8.40;99.90
54898;DHT22;40800;52.704;6.398;2023-02-04T10:43:30;8.60;99.90
54898;DHT22;40800;52.704;6.398;2023-02-04T10:46:03;8.60;99.90
54898;DHT22;40800;52.704;6.398;2023-02-04T10:48:29;8.70;99.90
54898;DHT22;40800;52.704;6.398;2023-02-04T10:50:56;8.70;99.90
54898;DHT22;40800;52.704;6.398;2023-02-04T10:53:24;8.70;99.90
54898;DHT22;40800;52.704;6.398;2023-02-04T10:56:19;8.80;99.90
54898;DHT22;40800;52.704;6.398;2023-02-04T10:58:45;9.00;99.90
54898;DHT22;40800;52.704;6.398;2023-02-04T11:01:13;9.10;99.90
54898;DHT22;40800;52.704;6.398;2023-02-04T11:03:39;9.20;99.90
54898;DHT22;40800;52.704;6.398;2023-02-04T11:06:15;9.30;99.90
54898;DHT22;40800;52.704;6.398;2023-02-04T11:08:42;9.40;99.90
54898;DHT22;40800;52.704;6.398;2023-02-04T11:11:22;9.70;99.90
54898;DHT22;40800;52.704;6.398;2023-02-04T11:18:52;9.80;99.90
54898;DHT22;40800;52.704;6.398;2023-02-04T11:21:41;9.80;99.90
54898;DHT22;40800;52.704;6.398;2023-02-04T11:29:28;10.10;99.90
54898;DHT22;40800;52.704;6.398;2023-02-04T11:32:02;10.10;99.90
54898;DHT22;40800;52.704;6.398;2023-02-04T11:34:30;10.20;99.90
54898;DHT22;40800;52.704;6.398;2023-02-04T11:37:10;10.30;99.90
54898;DHT22;40800;52.704;6.398;2023-02-04T11:39:42;10.30;99.90
54898;DHT22;40800;52.704;6.398;2023-02-04T11:42:20;10.40;99.90
54898;DHT22;40800;52.704;6.398;2023-02-04T11:45:00;10.50;99.90
54898;DHT22;40800;52.704;6.398;2023-02-04T11:47:32;10.60;99.90
54898;DHT22;40800;52.704;6.398;2023-02-04T11:50:01;10.90;99.90
54898;DHT22;40800;52.704;6.398;2023-02-04T11:52:28;11.10;99.90
54898;DHT22;40800;52.704;6.398;2023-02-04T11:55:02;11.20;99.90
54898;DHT22;40800;52.704;6.398;2023-02-04T11:57:28;11.20;99.90
54898;DHT22;40800;52.704;6.398;2023-02-04T11:59:54;11.40;99.90
54898;DHT22;40800;52.704;6.398;2023-02-04T12:02:23;11.20;99.90
54898;DHT22;40800;52.704;6.398;2023-02-04T12:04:57;11.70;99.90
54898;DHT22;40800;52.704;6.398;2023-02-04T12:07:33;11.60;99.90
54898;DHT22;40800;52.704;6.398;2023-02-04T12:12:49;11.80;99.90
54898;DHT22;40800;52.704;6.398;2023-02-04T12:15:19;12.00;99.90
54898;DHT22;40800;52.704;6.398;2023-02-04T12:17:46;11.90;99.90
54898;DHT22;40800;52.704;6.398;2023-02-04T12:20:24;12.10;99.90
54898;DHT22;40800;52.704;6.398;2023-02-04T12:22:49;12.10;99.90
54898;DHT22;40800;52.704;6.398;2023-02-04T12:25:15;12.10;99.90
54898;DHT22;40800;52.704;6.398;2023-02-04T12:27:41;12.20;99.90
54898;DHT22;40800;52.704;6.398;2023-02-04T12:30:07;12.20;99.90
54898;DHT22;40800;52.704;6.398;2023-02-04T12:32:33;12.20;99.90
54898;DHT22;40800;52.704;6.398;2023-02-04T12:34:59;12.20;99.90
54898;DHT22;40800;52.704;6.398;2023-02-04T12:37:24;12.40;99.90
54898;DHT22;40800;52.704;6.398;2023-02-04T12:39:50;12.70;99.90
54898;DHT22;40800;52.704;6.398;2023-02-04T12:42:15;12.80;99.90
54898;DHT22;40800;52.704;6.398;2023-02-04T12:44:41;12.90;99.90
54898;DHT22;40800;52.704;6.398;2023-02-04T12:47:06;12.90;99.90
54898;DHT22;40800;52.704;6.398;2023-02-04T12:49:32;12.90;99.90
54898;DHT22;40800;52.704;6.398;2023-02-04T12:51:58;12.90;99.90
54898;DHT22;40800;52.704;6.398;2023-02-04T12:54:26;13.00;99.90
54898;DHT22;40800;52.704;6.398;2023-02-04T12:56:52;13.00;99.90
54898;DHT22;40800;52.704;6.398;2023-02-04T12:59:18;13.00;99.90
54898;DHT22;40800;52.704;6.398;2023-02-04T13:01:43;12.80;99.90
54898;DHT22;40800;52.704;6.398;2023-02-04T13:04:09;12.70;99.90
54898;DHT22;40800;52.704;6.398;2023-02-04T13:06:34;12.60;99.90
54898;DHT22;40800;52.704;6.398;2023-02-04T13:09:00;12.60;99.90
54898;DHT22;40800;52.704;6.398;2023-02-04T13:11:26;12.70;99.90
54898;DHT22;40800;52.704;6.398;2023-02-04T13:13:51;12.70;99.90
54898;DHT22;40800;52.704;6.398;2023-02-04T13:16:17;12.80;99.90
54898;DHT22;40800;52.704;6.398;2023-02-04T13:18:43;13.10;99.90
54898;DHT22;40800;52.704;6.398;2023-02-04T13:21:09;13.20;99.90
54898;DHT22;40800;52.704;6.398;2023-02-04T13:23:34;13.50;99.90
54898;DHT22;40800;52.704;6.398;2023-02-04T13:26:00;13.40;99.90
54898;DHT22;40800;52.704;6.398;2023-02-04T13:28:26;13.40;99.90
54898;DHT22;40800;52.704;6.398;2023-02-04T13:30:52;13.50;99.90
54898;DHT22;40800;52.704;6.398;2023-02-04T13:33:17;13.50;99.90
54898;DHT22;40800;52.704;6.398;2023-02-04T13:35:43;13.50;99.90
54898;DHT22;40800;52.704;6.398;2023-02-04T13:38:09;13.50;99.90
54898;DHT22;40800;52.704;6.398;2023-02-04T13:40:35;13.20;99.90
54898;DHT22;40800;52.704;6.398;2023-02-04T13:43:00;12.90;99.90
54898;DHT22;40800;52.704;6.398;2023-02-04T13:45:26;12.70;99.90
54898;DHT22;40800;52.704;6.398;2023-02-04T13:47:52;12.60;99.90
54898;DHT22;40800;52.704;6.398;2023-02-04T13:50:17;12.40;99.90
54898;DHT22;40800;52.704;6.398;2023-02-04T13:52:43;12.30;99.90
54898;DHT22;40800;52.704;6.398;2023-02-04T13:55:09;12.30;99.90
54898;DHT22;40800;52.704;6.398;2023-02-04T13:57:35;12.60;99.90
54898;DHT22;40800;52.704;6.398;2023-02-04T14:00:02;13.00;99.90
54898;DHT22;40800;52.704;6.398;2023-02-04T14:02:28;13.50;99.90
54898;DHT22;40800;52.704;6.398;2023-02-04T14:04:54;13.90;99.90
54898;DHT22;40800;52.704;6.398;2023-02-04T14:07:19;14.00;99.90
54898;DHT22;40800;52.704;6.398;2023-02-04T14:09:45;14.40;99.90
54898;DHT22;40800;52.704;6.398;2023-02-04T14:12:13;14.40;99.90
54898;DHT22;40800;52.704;6.398;2023-02-04T14:14:38;14.40;99.90
54898;DHT22;40800;52.704;6.398;2023-02-04T14:17:04;14.30;99.90
54898;DHT22;40800;52.704;6.398;2023-02-04T14:19:29;14.20;99.90
54898;DHT22;40800;52.704;6.398;2023-02-04T14:21:55;14.10;99.90
54898;DHT22;40800;52.704;6.398;2023-02-04T14:24:21;14.00;99.90
54898;DHT22;40800;52.704;6.398;2023-02-04T14:26:46;14.10;99.90
54898;DHT22;40800;52.704;6.398;2023-02-04T14:29:12;14.70;99.90
54898;DHT22;40800;52.704;6.398;2023-02-04T14:31:38;14.70;99.90
54898;DHT22;40800;52.704;6.398;2023-02-04T14:34:03;14.60;99.90
54898;DHT22;40800;52.704;6.398;2023-02-04T14:36:29;14.20;99.90
54898;DHT22;40800;52.704;6.398;2023-02-04T14:38:55;14.00;99.90
54898;DHT22;40800;52.704;6.398;2023-02-04T14:41:21;14.00;99.90
54898;DHT22;40800;52.704;6.398;2023-02-04T14:43:47;14.00;99.90
54898;DHT22;40800;52.704;6.398;2023-02-04T14:46:13;13.80;99.90
54898;DHT22;40800;52.704;6.398;2023-02-04T14:48:38;13.60;99.90
54898;DHT22;40800;52.704;6.398;2023-02-04T14:51:04;13.30;99.90
54898;DHT22;40800;52.704;6.398;2023-02-04T14:53:30;13.10;99.90
54898;DHT22;40800;52.704;6.398;2023-02-04T14:55:56;12.90;99.90
54898;DHT22;40800;52.704;6.398;2023-02-04T14:58:21;12.80;99.90
54898;DHT22;40800;52.704;6.398;2023-02-04T15:00:47;12.70;99.90
54898;DHT22;40800;52.704;6.398;2023-02-04T15:03:13;12.60;99.90
54898;DHT22;40800;52.704;6.398;2023-02-04T15:05:38;12.50;99.90
54898;DHT22;40800;52.704;6.398;2023-02-04T15:08:04;12.40;99.90
54898;DHT22;40800;52.704;6.398;2023-02-04T15:10:29;12.40;99.90
54898;DHT22;40800;52.704;6.398;2023-02-04T15:12:55;12.40;99.90
54898;DHT22;40800;52.704;6.398;2023-02-04T15:15:22;12.60;99.90
54898;DHT22;40800;52.704;6.398;2023-02-04T15:17:47;12.50;99.90
54898;DHT22;40800;52.704;6.398;2023-02-04T15:20:15;12.40;99.90
54898;DHT22;40800;52.704;6.398;2023-02-04T15:22:40;12.30;99.90
54898;DHT22;40800;52.704;6.398;2023-02-04T15:25:06;12.10;99.90
54898;DHT22;40800;52.704;6.398;2023-02-04T15:27:32;11.90;99.90
54898;DHT22;40800;52.704;6.398;2023-02-04T15:29:57;11.80;99.90
54898;DHT22;40800;52.704;6.398;2023-02-04T15:32:23;11.60;99.90
54898;DHT22;40800;52.704;6.398;2023-02-04T15:34:48;11.50;99.90
54898;DHT22;40800;52.704;6.398;2023-02-04T15:37:14;11.60;99.90
54898;DHT22;40800;52.704;6.398;2023-02-04T15:39:40;11.40;99.90
54898;DHT22;40800;52.704;6.398;2023-02-04T15:42:08;11.10;99.90
54898;DHT22;40800;52.704;6.398;2023-02-04T15:44:34;11.10;99.90
54898;DHT22;40800;52.704;6.398;2023-02-04T15:47:01;11.10;99.90
54898;DHT22;40800;52.704;6.398;2023-02-04T15:49:26;11.10;99.90
54898;DHT22;40800;52.704;6.398;2023-02-04T15:51:52;11.40;99.90
54898;DHT22;40800;52.704;6.398;2023-02-04T15:54:18;11.10;99.90